sensor_id;sensor_type;location;lat;lon;timestamp;temperature;humidity
16172;DHT22;8192;53.596;10.166;2023-09-19T00:01:44;15.90;99.90
16172;DHT22;8192;53.596;10.166;2023-09-19T00:04:12;15.90;99.90
16172;DHT22;8192;53.596;10.166;2023-09-19T00:06:40;16.00;99.90
16172;DHT22;8192;53.596;10.166;2023-09-19T00:09:08;16.10;99.90
16172;DHT22;8192;53.596;10.166;2023-09-19T00:11:36;16.20;99.90
16172;DHT22;8192;53.596;10.166;2023-09-19T00:14:04;16.30;99.90
16172;DHT22;8192;53.596;10.166;2023-09-19T00:16:34;16.20;99.90
16172;DHT22;8192;53.596;10.166;2023-09-19T00:19:01;16.10;99.90
16172;DHT22;8192;53.596;10.166;2023-09-19T00:21:35;16.20;99.90
16172;DHT22;8192;53.596;10.166;2023-09-19T00:24:04;16.20;99.90
16172;DHT22;8192;53.596;10.166;2023-09-19T00:26:32;16.20;99.90
16172;DHT22;8192;53.596;10.166;2023-09-19T00:28:59;16.10;99.90
16172;DHT22;8192;53.596;10.166;2023-09-19T00:31:30;16.20;99.90
16172;DHT22;8192;53.596;10.166;2023-09-19T00:33:57;16.20;99.90
16172;DHT22;8192;53.596;10.166;2023-09-19T00:36:28;16.20;99.90
16172;DHT22;8192;53.596;10.166;2023-09-19T00:38:56;16.20;99.90
16172;DHT22;8192;53.596;10.166;2023-09-19T00:41:23;16.10;99.90
16172;DHT22;8192;53.596;10.166;2023-09-19T00:43:52;16.20;99.90
16172;DHT22;8192;53.596;10.166;2023-09-19T00:46:19;16.30;99.90
16172;DHT22;8192;53.596;10.166;2023-09-19T00:48:46;16.30;99.90
16172;DHT22;8192;53.596;10.166;2023-09-19T00:51:14;16.20;99.90
16172;DHT22;8192;53.596;10.166;2023-09-19T00:53:44;16.20;99.90
16172;DHT22;8192;53.596;10.166;2023-09-19T00:56:15;16.30;99.90
16172;DHT22;8192;53.596;10.166;2023-09-19T00:58:44;16.30;99.90
16172;DHT22;8192;53.596;10.166;2023-09-19T01:01:12;16.40;99.90
16172;DHT22;8192;53.596;10.166;2023-09-19T01:03:40;16.30;99.90
16172;DHT22;8192;53.596;10.166;2023-09-19T01:06:07;16.20;99.90
16172;DHT22;8192;53.596;10.166;2023-09-19T01:08:34;16.20;99.90
16172;DHT22;8192;53.596;10.166;2023-09-19T01:11:09;16.10;99.90
16172;DHT22;8192;53.596;10.166;2023-09-19T01:13:54;16.30;99.90
16172;DHT22;8192;53.596;10.166;2023-09-19T01:16:32;16.30;99.90
16172;DHT22;8192;53.596;10.166;2023-09-19T01:19:24;16.30;99.90
16172;DHT22;8192;53.596;10.166;2023-09-19T01:21:57;16.50;99.90
16172;DHT22;8192;53.596;10.166;2023-09-19T01:24:52;16.40;99.90
16172;DHT22;8192;53.596;10.166;2023-09-19T01:27:41;16.50;99.90
16172;DHT22;8192;53.596;10.166;2023-09-19T01:30:21;16.50;99.90
16172;DHT22;8192;53.596;10.166;2023-09-19T01:32:50;16.20;99.90
16172;DHT22;8192;53.596;10.166;2023-09-19T01:35:18;16.10;99.90
16172;DHT22;8192;53.596;10.166;2023-09-19T01:37:45;16.10;99.90
16172;DHT22;8192;53.596;10.166;2023-09-19T01:40:14;16.10;99.90
16172;DHT22;8192;53.596;10.166;2023-09-19T01:42:48;16.00;99.90
16172;DHT22;8192;53.596;10.166;2023-09-19T01:45:26;16.00;99.90
16172;DHT22;8192;53.596;10.166;2023-09-19T01:47:55;16.00;99.90
16172;DHT22;8192;53.596;10.166;2023-09-19T01:50:30;15.90;99.90
16172;DHT22;8192;53.596;10.166;2023-09-19T01:53:02;15.90;99.90
16172;DHT22;8192;53.596;10.166;2023-09-19T01:55:30;16.00;99.90
16172;DHT22;8192;53.596;10.166;2023-09-19T01:58:07;16.00;99.90
16172;DHT22;8192;53.596;10.166;2023-09-19T02:00:37;15.90;99.90
16172;DHT22;8192;53.596;10.166;2023-09-19T02:03:08;15.80;99.90
16172;DHT22;8192;53.596;10.166;2023-09-19T02:05:36;15.80;99.90
16172;DHT22;8192;53.596;10.166;2023-09-19T02:08:03;15.90;99.90
16172;DHT22;8192;53.596;10.166;2023-09-19T02:10:30;15.80;99.90
16172;DHT22;8192;53.596;10.166;2023-09-19T02:12:58;15.70;99.90
16172;DHT22;8192;53.596;10.166;2023-09-19T02:15:26;15.80;99.90
16172;DHT22;8192;53.596;10.166;2023-09-19T02:17:54;15.80;99.90
16172;DHT22;8192;53.596;10.166;2023-09-19T02:20:22;15.60;99.90
16172;DHT22;8192;53.596;10.166;2023-09-19T02:22:49;15.50;99.90
16172;DHT22;8192;53.596;10.166;2023-09-19T02:25:17;15.50;99.90
16172;DHT22;8192;53.596;10.166;2023-09-19T02:27:45;15.60;99.90
16172;DHT22;8192;53.596;10.166;2023-09-19T02:30:13;15.60;99.90
16172;DHT22;8192;53.596;10.166;2023-09-19T02:32:41;15.70;99.90
16172;DHT22;8192;53.596;10.166;2023-09-19T02:35:10;15.70;99.90
16172;DHT22;8192;53.596;10.166;2023-09-19T02:37:39;15.70;99.90
16172;DHT22;8192;53.596;10.166;2023-09-19T02:40:08;15.70;99.90
16172;DHT22;8192;53.596;10.166;2023-09-19T02:42:45;15.70;99.90
16172;DHT22;8192;53.596;10.166;2023-09-19T02:45:15;15.80;99.90
16172;DHT22;8192;53.596;10.166;2023-09-19T02:47:43;15.80;99.90
16172;DHT22;8192;53.596;10.166;2023-09-19T02:50:12;15.70;99.90
16172;DHT22;8192;53.596;10.166;2023-09-19T02:52:41;15.70;99.90
16172;DHT22;8192;53.596;10.166;2023-09-19T02:55:10;15.70;99.90
16172;DHT22;8192;53.596;10.166;2023-09-19T02:57:40;15.70;99.90
16172;DHT22;8192;53.596;10.166;2023-09-19T03:00:09;16.00;99.90
16172;DHT22;8192;53.596;10.166;2023-09-19T03:02:38;16.00;99.90
16172;DHT22;8192;53.596;10.166;2023-09-19T03:05:07;15.90;99.90
16172;DHT22;8192;53.596;10.166;2023-09-19T03:07:38;15.90;99.90
16172;DHT22;8192;53.596;10.166;2023-09-19T03:10:06;15.90;99.90
16172;DHT22;8192;53.596;10.166;2023-09-19T03:12:34;15.90;99.90
16172;DHT22;8192;53.596;10.166;2023-09-19T03:15:01;15.90;99.90
16172;DHT22;8192;53.596;10.166;2023-09-19T03:17:29;16.10;99.90
16172;DHT22;8192;53.596;10.166;2023-09-19T03:19:58;16.00;99.90
16172;DHT22;8192;53.596;10.166;2023-09-19T03:22:26;16.00;99.90
16172;DHT22;8192;53.596;10.166;2023-09-19T03:24:54;16.00;99.90
16172;DHT22;8192;53.596;10.166;2023-09-19T03:27:22;16.00;99.90
16172;DHT22;8192;53.596;10.166;2023-09-19T03:29:49;16.10;99.90
16172;DHT22;8192;53.596;10.166;2023-09-19T03:32:16;16.00;99.90
16172;DHT22;8192;53.596;10.166;2023-09-19T03:34:43;16.00;99.90
16172;DHT22;8192;53.596;10.166;2023-09-19T03:37:10;16.00;99.90
16172;DHT22;8192;53.596;10.166;2023-09-19T03:39:37;16.00;99.90
16172;DHT22;8192;53.596;10.166;2023-09-19T03:42:07;16.00;99.90
16172;DHT22;8192;53.596;10.166;2023-09-19T03:44:34;15.90;99.90
16172;DHT22;8192;53.596;10.166;2023-09-19T03:47:01;15.90;99.90
16172;DHT22;8192;53.596;10.166;2023-09-19T03:49:30;15.90;99.90
16172;DHT22;8192;53.596;10.166;2023-09-19T03:51:57;15.80;99.90
16172;DHT22;8192;53.596;10.166;2023-09-19T03:54:24;15.70;99.90
16172;DHT22;8192;53.596;10.166;2023-09-19T03:56:51;15.50;99.90
16172;DHT22;8192;53.596;10.166;2023-09-19T03:59:20;15.50;99.90
16172;DHT22;8192;53.596;10.166;2023-09-19T04:01:47;15.60;99.90
16172;DHT22;8192;53.596;10.166;2023-09-19T04:04:15;15.60;99.90
16172;DHT22;8192;53.596;10.166;2023-09-19T04:06:44;15.50;99.90
16172;DHT22;8192;53.596;10.166;2023-09-19T04:09:11;15.50;99.90
16172;DHT22;8192;53.596;10.166;2023-09-19T04:11:38;15.50;99.90
16172;DHT22;8192;53.596;10.166;2023-09-19T04:14:05;15.40;99.90
16172;DHT22;8192;53.596;10.166;2023-09-19T04:16:33;15.50;99.90
16172;DHT22;8192;53.596;10.166;2023-09-19T04:19:01;15.40;99.90
16172;DHT22;8192;53.596;10.166;2023-09-19T04:21:29;15.30;99.90
16172;DHT22;8192;53.596;10.166;2023-09-19T04:23:56;15.30;99.90
16172;DHT22;8192;53.596;10.166;2023-09-19T04:26:23;15.30;99.90
16172;DHT22;8192;53.596;10.166;2023-09-19T04:28:51;15.10;99.90
16172;DHT22;8192;53.596;10.166;2023-09-19T04:31:18;15.00;99.90
16172;DHT22;8192;53.596;10.166;2023-09-19T04:33:47;14.90;99.90
16172;DHT22;8192;53.596;10.166;2023-09-19T04:36:14;14.90;99.90
16172;DHT22;8192;53.596;10.166;2023-09-19T04:38:41;14.80;99.90
16172;DHT22;8192;53.596;10.166;2023-09-19T04:41:08;14.80;99.90
16172;DHT22;8192;53.596;10.166;2023-09-19T04:43:35;14.80;99.90
16172;DHT22;8192;53.596;10.166;2023-09-19T04:46:02;14.80;99.90
16172;DHT22;8192;53.596;10.166;2023-09-19T04:48:32;14.70;99.90
16172;DHT22;8192;53.596;10.166;2023-09-19T04:51:01;14.70;99.90
16172;DHT22;8192;53.596;10.166;2023-09-19T04:53:29;14.70;99.90
16172;DHT22;8192;53.596;10.166;2023-09-19T04:55:55;14.70;99.90
16172;DHT22;8192;53.596;10.166;2023-09-19T04:58:23;14.60;99.90
16172;DHT22;8192;53.596;10.166;2023-09-19T05:00:50;14.60;99.90
16172;DHT22;8192;53.596;10.166;2023-09-19T05:03:17;14.60;99.90
16172;DHT22;8192;53.596;10.166;2023-09-19T05:05:46;14.50;99.90
16172;DHT22;8192;53.596;10.166;2023-09-19T05:08:14;14.50;99.90
16172;DHT22;8192;53.596;10.166;2023-09-19T05:10:41;14.50;99.90
16172;DHT22;8192;53.596;10.166;2023-09-19T05:13:08;14.40;99.90
16172;DHT22;8192;53.596;10.166;2023-09-19T05:15:36;14.30;99.90
16172;DHT22;8192;53.596;10.166;2023-09-19T05:18:03;14.40;99.90
16172;DHT22;8192;53.596;10.166;2023-09-19T05:20:31;14.40;99.90
16172;DHT22;8192;53.596;10.166;2023-09-19T05:22:59;14.40;99.90
16172;DHT22;8192;53.596;10.166;2023-09-19T05:25:30;14.50;99.90
16172;DHT22;8192;53.596;10.166;2023-09-19T05:27:58;14.50;99.90
16172;DHT22;8192;53.596;10.166;2023-09-19T05:30:29;14.50;99.90
16172;DHT22;8192;53.596;10.166;2023-09-19T05:32:56;14.50;99.90
16172;DHT22;8192;53.596;10.166;2023-09-19T05:35:24;14.40;99.90
16172;DHT22;8192;53.596;10.166;2023-09-19T05:37:52;14.30;99.90
16172;DHT22;8192;53.596;10.166;2023-09-19T05:40:20;14.20;99.90
16172;DHT22;8192;53.596;10.166;2023-09-19T05:42:48;14.30;99.90
16172;DHT22;8192;53.596;10.166;2023-09-19T05:45:16;14.20;99.90
16172;DHT22;8192;53.596;10.166;2023-09-19T05:47:47;14.10;99.90
16172;DHT22;8192;53.596;10.166;2023-09-19T05:50:15;14.30;99.90
16172;DHT22;8192;53.596;10.166;2023-09-19T05:52:42;14.40;99.90
16172;DHT22;8192;53.596;10.166;2023-09-19T05:55:11;14.50;99.90
16172;DHT22;8192;53.596;10.166;2023-09-19T05:57:38;14.50;99.90
16172;DHT22;8192;53.596;10.166;2023-09-19T06:00:07;14.60;99.90
16172;DHT22;8192;53.596;10.166;2023-09-19T06:02:37;14.50;99.90
16172;DHT22;8192;53.596;10.166;2023-09-19T06:05:06;14.60;99.90
16172;DHT22;8192;53.596;10.166;2023-09-19T06:07:35;14.70;99.90
16172;DHT22;8192;53.596;10.166;2023-09-19T06:10:03;14.90;99.90
16172;DHT22;8192;53.596;10.166;2023-09-19T06:12:38;15.00;99.90
16172;DHT22;8192;53.596;10.166;2023-09-19T06:15:08;15.20;99.90
16172;DHT22;8192;53.596;10.166;2023-09-19T06:17:38;15.40;99.90
16172;DHT22;8192;53.596;10.166;2023-09-19T06:20:06;15.60;99.90
16172;DHT22;8192;53.596;10.166;2023-09-19T06:22:38;15.80;99.90
16172;DHT22;8192;53.596;10.166;2023-09-19T06:25:07;16.10;99.90
16172;DHT22;8192;53.596;10.166;2023-09-19T06:27:37;16.90;99.90
16172;DHT22;8192;53.596;10.166;2023-09-19T06:30:08;17.30;99.90
16172;DHT22;8192;53.596;10.166;2023-09-19T06:32:35;17.60;99.90
16172;DHT22;8192;53.596;10.166;2023-09-19T06:35:03;17.70;99.90
16172;DHT22;8192;53.596;10.166;2023-09-19T06:37:33;17.40;99.90
16172;DHT22;8192;53.596;10.166;2023-09-19T06:40:01;17.30;99.90
16172;DHT22;8192;53.596;10.166;2023-09-19T06:42:28;17.10;99.90
16172;DHT22;8192;53.596;10.166;2023-09-19T06:44:55;16.90;99.90
16172;DHT22;8192;53.596;10.166;2023-09-19T06:47:23;16.70;99.90
16172;DHT22;8192;53.596;10.166;2023-09-19T06:49:51;16.50;99.90
16172;DHT22;8192;53.596;10.166;2023-09-19T06:52:18;16.80;99.90
16172;DHT22;8192;53.596;10.166;2023-09-19T06:54:47;17.10;99.90
16172;DHT22;8192;53.596;10.166;2023-09-19T06:57:15;17.40;99.90
16172;DHT22;8192;53.596;10.166;2023-09-19T06:59:43;17.60;99.90
16172;DHT22;8192;53.596;10.166;2023-09-19T07:02:10;17.80;99.90
16172;DHT22;8192;53.596;10.166;2023-09-19T07:04:40;17.70;99.90
16172;DHT22;8192;53.596;10.166;2023-09-19T07:07:09;17.50;99.90
16172;DHT22;8192;53.596;10.166;2023-09-19T07:09:42;17.00;99.90
16172;DHT22;8192;53.596;10.166;2023-09-19T07:12:09;17.10;99.90
16172;DHT22;8192;53.596;10.166;2023-09-19T07:14:37;17.20;99.90
16172;DHT22;8192;53.596;10.166;2023-09-19T07:17:04;17.10;99.90
16172;DHT22;8192;53.596;10.166;2023-09-19T07:19:31;17.10;99.90
16172;DHT22;8192;53.596;10.166;2023-09-19T07:21:59;17.00;99.90
16172;DHT22;8192;53.596;10.166;2023-09-19T07:24:28;16.80;99.90
16172;DHT22;8192;53.596;10.166;2023-09-19T07:26:55;16.60;99.90
16172;DHT22;8192;53.596;10.166;2023-09-19T07:29:22;16.70;99.90
16172;DHT22;8192;53.596;10.166;2023-09-19T07:31:49;17.00;99.90
16172;DHT22;8192;53.596;10.166;2023-09-19T07:34:16;17.30;99.90
16172;DHT22;8192;53.596;10.166;2023-09-19T07:36:43;17.30;99.90
16172;DHT22;8192;53.596;10.166;2023-09-19T07:39:14;17.10;99.90
16172;DHT22;8192;53.596;10.166;2023-09-19T07:41:41;16.90;99.90
16172;DHT22;8192;53.596;10.166;2023-09-19T07:44:08;16.80;99.90
16172;DHT22;8192;53.596;10.166;2023-09-19T07:46:36;16.70;99.90
16172;DHT22;8192;53.596;10.166;2023-09-19T07:49:04;16.80;99.90
16172;DHT22;8192;53.596;10.166;2023-09-19T07:51:31;16.70;99.90
16172;DHT22;8192;53.596;10.166;2023-09-19T07:53:59;16.70;99.90
16172;DHT22;8192;53.596;10.166;2023-09-19T07:56:27;16.70;99.90
16172;DHT22;8192;53.596;10.166;2023-09-19T07:58:54;16.70;99.90
16172;DHT22;8192;53.596;10.166;2023-09-19T08:01:23;16.50;99.90
16172;DHT22;8192;53.596;10.166;2023-09-19T08:03:53;16.30;99.90
16172;DHT22;8192;53.596;10.166;2023-09-19T08:06:20;16.30;99.90
16172;DHT22;8192;53.596;10.166;2023-09-19T08:08:46;16.00;99.90
16172;DHT22;8192;53.596;10.166;2023-09-19T08:11:15;15.50;99.90
16172;DHT22;8192;53.596;10.166;2023-09-19T08:13:46;14.90;99.90
16172;DHT22;8192;53.596;10.166;2023-09-19T08:16:15;14.70;99.90
16172;DHT22;8192;53.596;10.166;2023-09-19T08:18:47;14.50;99.90
16172;DHT22;8192;53.596;10.166;2023-09-19T08:21:14;14.50;99.90
16172;DHT22;8192;53.596;10.166;2023-09-19T08:23:41;14.60;99.90
16172;DHT22;8192;53.596;10.166;2023-09-19T08:26:08;14.60;99.90
16172;DHT22;8192;53.596;10.166;2023-09-19T08:28:35;14.60;99.90
16172;DHT22;8192;53.596;10.166;2023-09-19T08:31:08;14.60;99.90
16172;DHT22;8192;53.596;10.166;2023-09-19T08:33:37;14.80;99.90
16172;DHT22;8192;53.596;10.166;2023-09-19T08:36:05;15.00;99.90
16172;DHT22;8192;53.596;10.166;2023-09-19T08:38:35;15.10;99.90
16172;DHT22;8192;53.596;10.166;2023-09-19T08:41:05;15.30;99.90
16172;DHT22;8192;53.596;10.166;2023-09-19T08:43:33;15.30;99.90
16172;DHT22;8192;53.596;10.166;2023-09-19T08:46:09;15.40;99.90
16172;DHT22;8192;53.596;10.166;2023-09-19T08:48:39;15.50;99.90
16172;DHT22;8192;53.596;10.166;2023-09-19T08:51:07;15.60;99.90
16172;DHT22;8192;53.596;10.166;2023-09-19T08:53:41;15.70;99.90
16172;DHT22;8192;53.596;10.166;2023-09-19T08:56:12;15.70;99.90
16172;DHT22;8192;53.596;10.166;2023-09-19T08:58:45;15.70;99.90
16172;DHT22;8192;53.596;10.166;2023-09-19T09:01:15;15.70;99.90
16172;DHT22;8192;53.596;10.166;2023-09-19T09:03:44;15.70;99.90
16172;DHT22;8192;53.596;10.166;2023-09-19T09:06:14;15.80;99.90
16172;DHT22;8192;53.596;10.166;2023-09-19T09:08:42;15.80;99.90
16172;DHT22;8192;53.596;10.166;2023-09-19T09:11:09;16.00;99.90
16172;DHT22;8192;53.596;10.166;2023-09-19T09:13:38;16.20;99.90
16172;DHT22;8192;53.596;10.166;2023-09-19T09:16:07;16.30;99.90
16172;DHT22;8192;53.596;10.166;2023-09-19T09:18:36;16.30;99.90
16172;DHT22;8192;53.596;10.166;2023-09-19T09:21:04;16.50;99.90
16172;DHT22;8192;53.596;10.166;2023-09-19T09:23:31;16.50;99.90
16172;DHT22;8192;53.596;10.166;2023-09-19T09:25:59;16.60;99.90
16172;DHT22;8192;53.596;10.166;2023-09-19T09:28:29;16.50;99.90
16172;DHT22;8192;53.596;10.166;2023-09-19T09:30:57;16.60;99.90
16172;DHT22;8192;53.596;10.166;2023-09-19T09:33:25;16.60;99.90
16172;DHT22;8192;53.596;10.166;2023-09-19T09:35:55;16.70;99.90
16172;DHT22;8192;53.596;10.166;2023-09-19T09:38:44;16.60;99.90
16172;DHT22;8192;53.596;10.166;2023-09-19T09:41:12;16.80;99.90
16172;DHT22;8192;53.596;10.166;2023-09-19T09:43:42;16.90;99.90
16172;DHT22;8192;53.596;10.166;2023-09-19T09:46:13;17.00;99.90
16172;DHT22;8192;53.596;10.166;2023-09-19T09:48:59;17.30;99.90
16172;DHT22;8192;53.596;10.166;2023-09-19T09:52:02;17.40;99.90
16172;DHT22;8192;53.596;10.166;2023-09-19T09:54:35;17.30;99.90
16172;DHT22;8192;53.596;10.166;2023-09-19T09:57:04;17.30;99.90
16172;DHT22;8192;53.596;10.166;2023-09-19T09:59:47;17.30;99.90
16172;DHT22;8192;53.596;10.166;2023-09-19T10:02:14;17.50;99.90
16172;DHT22;8192;53.596;10.166;2023-09-19T10:04:42;17.60;99.90
16172;DHT22;8192;53.596;10.166;2023-09-19T10:07:26;17.70;99.90
16172;DHT22;8192;53.596;10.166;2023-09-19T10:10:02;17.90;99.90
16172;DHT22;8192;53.596;10.166;2023-09-19T10:12:47;17.80;99.90
16172;DHT22;8192;53.596;10.166;2023-09-19T10:15:16;17.90;99.90
16172;DHT22;8192;53.596;10.166;2023-09-19T10:17:46;17.90;99.90
16172;DHT22;8192;53.596;10.166;2023-09-19T10:20:14;18.10;99.90
16172;DHT22;8192;53.596;10.166;2023-09-19T10:22:53;18.20;99.90
16172;DHT22;8192;53.596;10.166;2023-09-19T10:25:25;18.20;99.90
16172;DHT22;8192;53.596;10.166;2023-09-19T10:27:54;18.40;99.90
16172;DHT22;8192;53.596;10.166;2023-09-19T10:30:24;18.40;99.90
16172;DHT22;8192;53.596;10.166;2023-09-19T10:32:59;18.40;99.90
16172;DHT22;8192;53.596;10.166;2023-09-19T10:35:27;18.40;99.90
16172;DHT22;8192;53.596;10.166;2023-09-19T10:37:58;18.40;99.90
16172;DHT22;8192;53.596;10.166;2023-09-19T10:40:27;18.40;99.90
16172;DHT22;8192;53.596;10.166;2023-09-19T10:43:01;18.50;99.90
16172;DHT22;8192;53.596;10.166;2023-09-19T10:45:31;18.60;99.90
16172;DHT22;8192;53.596;10.166;2023-09-19T10:47:58;18.70;99.90
16172;DHT22;8192;53.596;10.166;2023-09-19T10:50:28;18.60;99.90
16172;DHT22;8192;53.596;10.166;2023-09-19T10:53:03;18.70;99.90
16172;DHT22;8192;53.596;10.166;2023-09-19T10:55:34;18.70;99.90
16172;DHT22;8192;53.596;10.166;2023-09-19T10:58:02;18.70;99.90
16172;DHT22;8192;53.596;10.166;2023-09-19T11:00:51;18.60;99.90
16172;DHT22;8192;53.596;10.166;2023-09-19T11:03:22;18.70;99.90
16172;DHT22;8192;53.596;10.166;2023-09-19T11:06:16;18.70;99.90
16172;DHT22;8192;53.596;10.166;2023-09-19T11:08:59;18.60;99.90
16172;DHT22;8192;53.596;10.166;2023-09-19T11:11:56;18.70;99.90
16172;DHT22;8192;53.596;10.166;2023-09-19T11:14:39;18.70;99.90
16172;DHT22;8192;53.596;10.166;2023-09-19T11:17:40;18.70;99.90
16172;DHT22;8192;53.596;10.166;2023-09-19T11:20:26;18.90;99.90
16172;DHT22;8192;53.596;10.166;2023-09-19T11:23:23;19.20;99.90
16172;DHT22;8192;53.596;10.166;2023-09-19T11:25:53;19.20;99.90
16172;DHT22;8192;53.596;10.166;2023-09-19T11:28:34;19.10;99.90
16172;DHT22;8192;53.596;10.166;2023-09-19T11:34:47;19.00;99.90
16172;DHT22;8192;53.596;10.166;2023-09-19T11:40:25;19.40;99.90
16172;DHT22;8192;53.596;10.166;2023-09-19T11:42:55;19.30;99.90
16172;DHT22;8192;53.596;10.166;2023-09-19T11:48:27;19.20;99.90
16172;DHT22;8192;53.596;10.166;2023-09-19T11:50:56;19.10;99.90
16172;DHT22;8192;53.596;10.166;2023-09-19T11:53:31;19.00;99.90
16172;DHT22;8192;53.596;10.166;2023-09-19T11:56:06;19.00;99.90
16172;DHT22;8192;53.596;10.166;2023-09-19T11:58:37;18.80;99.90
16172;DHT22;8192;53.596;10.166;2023-09-19T12:01:05;18.90;99.90
16172;DHT22;8192;53.596;10.166;2023-09-19T12:03:42;19.30;99.90
16172;DHT22;8192;53.596;10.166;2023-09-19T12:06:13;19.40;99.90
16172;DHT22;8192;53.596;10.166;2023-09-19T12:08:41;19.50;99.90
16172;DHT22;8192;53.596;10.166;2023-09-19T12:11:15;19.50;99.90
16172;DHT22;8192;53.596;10.166;2023-09-19T12:13:46;19.50;99.90
16172;DHT22;8192;53.596;10.166;2023-09-19T12:16:15;19.50;99.90
16172;DHT22;8192;53.596;10.166;2023-09-19T12:18:50;19.50;99.90
16172;DHT22;8192;53.596;10.166;2023-09-19T12:21:24;19.30;99.90
16172;DHT22;8192;53.596;10.166;2023-09-19T12:24:13;19.20;99.90
16172;DHT22;8192;53.596;10.166;2023-09-19T12:26:45;19.30;99.90
16172;DHT22;8192;53.596;10.166;2023-09-19T12:29:16;19.50;99.90
16172;DHT22;8192;53.596;10.166;2023-09-19T12:31:51;19.60;99.90
16172;DHT22;8192;53.596;10.166;2023-09-19T12:34:21;19.50;99.90
16172;DHT22;8192;53.596;10.166;2023-09-19T12:36:49;19.90;99.90
16172;DHT22;8192;53.596;10.166;2023-09-19T12:39:24;19.70;99.90
16172;DHT22;8192;53.596;10.166;2023-09-19T12:41:52;19.60;99.90
16172;DHT22;8192;53.596;10.166;2023-09-19T12:44:22;19.50;99.90
16172;DHT22;8192;53.596;10.166;2023-09-19T12:46:50;19.70;99.90
16172;DHT22;8192;53.596;10.166;2023-09-19T12:49:19;19.90;99.90
16172;DHT22;8192;53.596;10.166;2023-09-19T12:51:47;19.90;99.90
16172;DHT22;8192;53.596;10.166;2023-09-19T12:54:14;20.00;99.90
16172;DHT22;8192;53.596;10.166;2023-09-19T12:56:43;19.80;99.90
16172;DHT22;8192;53.596;10.166;2023-09-19T12:59:15;19.90;99.90
16172;DHT22;8192;53.596;10.166;2023-09-19T13:01:44;19.80;99.80
16172;DHT22;8192;53.596;10.166;2023-09-19T13:04:16;19.70;99.90
16172;DHT22;8192;53.596;10.166;2023-09-19T13:06:52;19.70;99.90
16172;DHT22;8192;53.596;10.166;2023-09-19T13:09:21;19.80;99.90
16172;DHT22;8192;53.596;10.166;2023-09-19T13:11:50;20.00;99.90
16172;DHT22;8192;53.596;10.166;2023-09-19T13:14:21;20.00;99.90
16172;DHT22;8192;53.596;10.166;2023-09-19T13:16:58;20.00;99.50
16172;DHT22;8192;53.596;10.166;2023-09-19T13:19:40;20.10;99.90
16172;DHT22;8192;53.596;10.166;2023-09-19T13:22:36;20.00;99.80
16172;DHT22;8192;53.596;10.166;2023-09-19T13:25:07;20.00;99.50
16172;DHT22;8192;53.596;10.166;2023-09-19T13:27:39;20.00;98.80
16172;DHT22;8192;53.596;10.166;2023-09-19T13:30:07;19.80;99.90
16172;DHT22;8192;53.596;10.166;2023-09-19T13:32:36;19.80;99.80
16172;DHT22;8192;53.596;10.166;2023-09-19T13:35:05;19.90;99.90
16172;DHT22;8192;53.596;10.166;2023-09-19T13:37:34;20.10;98.90
16172;DHT22;8192;53.596;10.166;2023-09-19T13:40:05;20.20;98.40
16172;DHT22;8192;53.596;10.166;2023-09-19T13:42:32;20.30;98.70
16172;DHT22;8192;53.596;10.166;2023-09-19T13:44:59;20.30;98.70
16172;DHT22;8192;53.596;10.166;2023-09-19T13:47:25;20.30;98.90
16172;DHT22;8192;53.596;10.166;2023-09-19T13:49:54;20.10;98.00
16172;DHT22;8192;53.596;10.166;2023-09-19T13:52:21;20.10;99.40
16172;DHT22;8192;53.596;10.166;2023-09-19T13:54:49;20.40;98.90
16172;DHT22;8192;53.596;10.166;2023-09-19T13:57:16;20.50;96.40
16172;DHT22;8192;53.596;10.166;2023-09-19T13:59:44;20.60;97.10
16172;DHT22;8192;53.596;10.166;2023-09-19T14:02:10;20.60;98.90
16172;DHT22;8192;53.596;10.166;2023-09-19T14:04:39;20.90;99.50
16172;DHT22;8192;53.596;10.166;2023-09-19T14:07:08;21.10;97.10
16172;DHT22;8192;53.596;10.166;2023-09-19T14:09:36;20.90;95.50
16172;DHT22;8192;53.596;10.166;2023-09-19T14:12:03;20.50;96.80
16172;DHT22;8192;53.596;10.166;2023-09-19T14:14:31;20.40;96.40
16172;DHT22;8192;53.596;10.166;2023-09-19T14:16:57;20.30;95.60
16172;DHT22;8192;53.596;10.166;2023-09-19T14:19:26;20.10;96.30
16172;DHT22;8192;53.596;10.166;2023-09-19T14:21:53;20.10;98.30
16172;DHT22;8192;53.596;10.166;2023-09-19T14:24:23;20.40;99.00
16172;DHT22;8192;53.596;10.166;2023-09-19T14:26:50;21.00;97.50
16172;DHT22;8192;53.596;10.166;2023-09-19T14:29:17;21.30;96.90
16172;DHT22;8192;53.596;10.166;2023-09-19T14:31:45;21.50;95.30
16172;DHT22;8192;53.596;10.166;2023-09-19T14:34:12;21.10;95.00
16172;DHT22;8192;53.596;10.166;2023-09-19T14:36:40;20.60;95.70
16172;DHT22;8192;53.596;10.166;2023-09-19T14:39:07;20.60;95.70
16172;DHT22;8192;53.596;10.166;2023-09-19T14:41:36;20.60;96.30
16172;DHT22;8192;53.596;10.166;2023-09-19T14:44:03;20.60;97.40
16172;DHT22;8192;53.596;10.166;2023-09-19T14:46:31;20.30;95.90
16172;DHT22;8192;53.596;10.166;2023-09-19T14:48:59;20.30;98.40
16172;DHT22;8192;53.596;10.166;2023-09-19T14:51:29;20.40;97.60
16172;DHT22;8192;53.596;10.166;2023-09-19T14:53:56;20.50;98.40
16172;DHT22;8192;53.596;10.166;2023-09-19T14:56:29;20.20;98.50
16172;DHT22;8192;53.596;10.166;2023-09-19T14:58:58;19.90;99.80
16172;DHT22;8192;53.596;10.166;2023-09-19T15:01:25;19.80;98.50
16172;DHT22;8192;53.596;10.166;2023-09-19T15:03:52;19.80;99.90
16172;DHT22;8192;53.596;10.166;2023-09-19T15:06:20;19.80;99.70
16172;DHT22;8192;53.596;10.166;2023-09-19T15:08:48;19.70;99.70
16172;DHT22;8192;53.596;10.166;2023-09-19T15:11:16;19.50;99.90
16172;DHT22;8192;53.596;10.166;2023-09-19T15:13:45;19.30;99.90
16172;DHT22;8192;53.596;10.166;2023-09-19T15:16:13;19.20;99.90
16172;DHT22;8192;53.596;10.166;2023-09-19T15:18:42;19.20;99.90
16172;DHT22;8192;53.596;10.166;2023-09-19T15:21:12;19.20;99.90
16172;DHT22;8192;53.596;10.166;2023-09-19T15:23:41;19.00;99.90
16172;DHT22;8192;53.596;10.166;2023-09-19T15:26:11;18.90;99.90
16172;DHT22;8192;53.596;10.166;2023-09-19T15:28:39;18.90;99.90
16172;DHT22;8192;53.596;10.166;2023-09-19T15:31:07;18.80;99.90
16172;DHT22;8192;53.596;10.166;2023-09-19T15:33:36;18.90;99.90
16172;DHT22;8192;53.596;10.166;2023-09-19T15:36:06;18.90;99.90
16172;DHT22;8192;53.596;10.166;2023-09-19T15:38:57;18.90;99.90
16172;DHT22;8192;53.596;10.166;2023-09-19T15:41:25;19.00;99.90
16172;DHT22;8192;53.596;10.166;2023-09-19T15:43:53;19.00;99.90
16172;DHT22;8192;53.596;10.166;2023-09-19T15:46:20;18.90;99.90
16172;DHT22;8192;53.596;10.166;2023-09-19T15:48:49;18.90;99.90
16172;DHT22;8192;53.596;10.166;2023-09-19T15:51:16;19.00;99.90
16172;DHT22;8192;53.596;10.166;2023-09-19T15:53:44;19.00;99.90
16172;DHT22;8192;53.596;10.166;2023-09-19T15:56:12;19.00;99.90
16172;DHT22;8192;53.596;10.166;2023-09-19T15:58:40;18.90;99.90